UAE295 OEJN-OMAA
Flight info
| Callsign | UAE295 |
|---|---|
| Flight time | N/A |
| Altitude | 41000 |
| Route | EGREP T532 KODIS Y214 RAPMA DCT KUVSO DCT RIBOT M550 GOLGU M318 ATUDO |
| Aircraft | A359/H-SDE2E3GHIJ3J4J5LM1ORWXY/LB1D1 |
Departure
| Time | 2026-04-28 22:28 |
|---|---|
| Airport | King Abdulaziz International Airport (OEJN) |
Arrival
| Time | N/A |
|---|---|
| Airport | Zayed International Airport (OMAA) |
| Time | Latitude | Longitude | Altitude | Speed | Heading |
|---|---|---|---|---|---|
| 2026-04-28 21:37 | 21.66530 | 39.17082 | 42 ft | 0 kts | 79° |
| 2026-04-28 22:14 | 21.66528 | 39.17072 | 42 ft | 2 kts | 79° |
| 2026-04-28 22:14 | 21.66526 | 39.17060 | 39 ft | 2 kts | 79° |
| 2026-04-28 22:15 | 21.66523 | 39.17044 | 42 ft | 2 kts | 79° |
| 2026-04-28 22:15 | 21.66520 | 39.17027 | 40 ft | 2 kts | 79° |
| 2026-04-28 22:15 | 21.66518 | 39.17008 | 39 ft | 3 kts | 107° |
| 2026-04-28 22:15 | 21.66526 | 39.16990 | 37 ft | 3 kts | 145° |
| 2026-04-28 22:16 | 21.66531 | 39.16987 | 37 ft | 0 kts | 158° |
| 2026-04-28 22:18 | 21.66519 | 39.16992 | 39 ft | 6 kts | 158° |
| 2026-04-28 22:18 | 21.66511 | 39.16996 | 37 ft | 0 kts | 157° |
| 2026-04-28 22:19 | 21.66468 | 39.17012 | 42 ft | 6 kts | 162° |
| 2026-04-28 22:19 | 21.66465 | 39.17013 | 42 ft | 0 kts | 162° |
| 2026-04-28 22:21 | 21.66451 | 39.17016 | 42 ft | 0 kts | 171° |
| 2026-04-28 22:21 | 21.66433 | 39.17018 | 42 ft | 7 kts | 174° |
| 2026-04-28 22:22 | 21.66387 | 39.17019 | 40 ft | 0 kts | 181° |
| 2026-04-28 22:22 | 21.66359 | 39.17014 | 42 ft | 9 kts | 196° |
| 2026-04-28 22:22 | 21.66305 | 39.16965 | 42 ft | 2 kts | 240° |
| 2026-04-28 22:22 | 21.66283 | 39.16914 | 42 ft | 8 kts | 247° |
| 2026-04-28 22:23 | 21.66282 | 39.16912 | 42 ft | 0 kts | 246° |
| 2026-04-28 22:23 | 21.66271 | 39.16882 | 42 ft | 10 kts | 250° |
| 2026-04-28 22:23 | 21.66258 | 39.16844 | 42 ft | 0 kts | 250° |
| 2026-04-28 22:24 | 21.66257 | 39.16840 | 42 ft | 3 kts | 250° |
| 2026-04-28 22:25 | 21.66244 | 39.16802 | 42 ft | 0 kts | 250° |
| 2026-04-28 22:25 | 21.66232 | 39.16764 | 42 ft | 11 kts | 250° |
| 2026-04-28 22:25 | 21.66226 | 39.16748 | 42 ft | 4 kts | 250° |
| 2026-04-28 22:25 | 21.66204 | 39.16682 | 42 ft | 15 kts | 250° |
| 2026-04-28 22:26 | 21.66163 | 39.16547 | 40 ft | 19 kts | 264° |
| 2026-04-28 22:26 | 21.66242 | 39.16441 | 39 ft | 6 kts | 340° |
| 2026-04-28 22:26 | 21.66243 | 39.16441 | 40 ft | 0 kts | 339° |
| 2026-04-28 22:27 | 21.66251 | 39.16438 | 40 ft | 9 kts | 339° |
| 2026-04-28 22:27 | 21.66625 | 39.16287 | 42 ft | 108 kts | 340° |
| 2026-04-28 22:27 | 21.67598 | 39.15902 | 166 ft | 182 kts | 340° |
| 2026-04-28 22:28 | 21.68859 | 39.15375 | 1064 ft | 202 kts | 340° |
| 2026-04-28 22:28 | 21.70244 | 39.14791 | 2128 ft | 225 kts | 340° |
| 2026-04-28 22:28 | 21.71710 | 39.14224 | 3061 ft | 227 kts | 339° |
| 2026-04-28 22:28 | 21.73242 | 39.13645 | 3415 ft | 241 kts | 339° |
| 2026-04-28 22:29 | 21.74862 | 39.13021 | 3773 ft | 253 kts | 338° |
| 2026-04-28 22:29 | 21.76541 | 39.12367 | 4246 ft | 261 kts | 338° |
| 2026-04-28 22:29 | 21.78261 | 39.11692 | 4765 ft | 265 kts | 337° |
| 2026-04-28 22:29 | 21.80007 | 39.11005 | 5302 ft | 270 kts | 336° |
| 2026-04-28 22:30 | 21.81790 | 39.10301 | 5756 ft | 276 kts | 336° |
| 2026-04-28 22:30 | 21.83612 | 39.09581 | 6213 ft | 282 kts | 336° |
| 2026-04-28 22:30 | 21.85471 | 39.08847 | 6676 ft | 286 kts | 336° |
| 2026-04-28 22:30 | 21.87359 | 39.08156 | 7199 ft | 288 kts | 342° |
| 2026-04-28 22:31 | 21.89361 | 39.07921 | 7732 ft | 294 kts | 0° |
| 2026-04-28 22:31 | 21.91346 | 39.08493 | 8219 ft | 301 kts | 26° |
| 2026-04-28 22:31 | 21.92952 | 39.09959 | 8682 ft | 308 kts | 48° |
| 2026-04-28 22:31 | 21.94331 | 39.11781 | 8916 ft | 320 kts | 51° |
| 2026-04-28 22:32 | 21.95723 | 39.13711 | 9149 ft | 332 kts | 52° |
| 2026-04-28 22:32 | 21.97169 | 39.15712 | 9372 ft | 344 kts | 52° |
| 2026-04-28 22:32 | 21.98670 | 39.17778 | 9561 ft | 356 kts | 52° |
| 2026-04-28 22:32 | 22.00220 | 39.19903 | 9783 ft | 366 kts | 51° |
| 2026-04-28 22:33 | 22.01806 | 39.22075 | 10072 ft | 371 kts | 51° |
| 2026-04-28 22:33 | 22.03407 | 39.24266 | 10406 ft | 374 kts | 51° |
| 2026-04-28 22:33 | 22.05024 | 39.26477 | 10760 ft | 377 kts | 51° |
| 2026-04-28 22:33 | 22.06650 | 39.28703 | 11074 ft | 380 kts | 51° |
| 2026-04-28 22:34 | 22.08290 | 39.30947 | 11429 ft | 382 kts | 51° |
| 2026-04-28 22:34 | 22.09942 | 39.33207 | 11779 ft | 384 kts | 51° |
| 2026-04-28 22:34 | 22.11600 | 39.35478 | 12093 ft | 387 kts | 51° |
| 2026-04-28 22:34 | 22.13262 | 39.37755 | 12502 ft | 386 kts | 51° |
| 2026-04-28 22:35 | 22.14927 | 39.40037 | 12851 ft | 388 kts | 51° |
| 2026-04-28 22:35 | 22.16602 | 39.42334 | 13160 ft | 391 kts | 51° |
| 2026-04-28 22:35 | 22.18285 | 39.44643 | 13492 ft | 393 kts | 51° |
| 2026-04-28 22:35 | 22.19954 | 39.46934 | 13782 ft | 395 kts | 51° |
| 2026-04-28 22:36 | 22.21655 | 39.49269 | 14061 ft | 397 kts | 51° |
| 2026-04-28 22:36 | 22.23363 | 39.51615 | 14324 ft | 399 kts | 51° |
| 2026-04-28 22:36 | 22.25081 | 39.53976 | 14610 ft | 401 kts | 51° |
| 2026-04-28 22:36 | 22.26813 | 39.56357 | 14786 ft | 406 kts | 51° |
| 2026-04-28 22:37 | 22.28572 | 39.58774 | 14915 ft | 412 kts | 51° |
| 2026-04-28 22:37 | 22.30353 | 39.61226 | 15042 ft | 418 kts | 51° |
| 2026-04-28 22:37 | 22.32160 | 39.63714 | 15157 ft | 423 kts | 51° |
| 2026-04-28 22:37 | 22.33985 | 39.66226 | 15254 ft | 428 kts | 51° |
| 2026-04-28 22:38 | 22.35836 | 39.68777 | 15379 ft | 433 kts | 51° |
| 2026-04-28 22:38 | 22.37703 | 39.71351 | 15470 ft | 438 kts | 52° |
| 2026-04-28 22:38 | 22.39592 | 39.73957 | 15573 ft | 442 kts | 52° |
| 2026-04-28 22:38 | 22.41493 | 39.76580 | 15695 ft | 445 kts | 51° |
| 2026-04-28 22:39 | 22.43406 | 39.79221 | 15871 ft | 447 kts | 52° |
| 2026-04-28 22:39 | 22.45325 | 39.81864 | 16058 ft | 448 kts | 51° |
| 2026-04-28 22:39 | 22.47406 | 39.84371 | 16206 ft | 449 kts | 44° |
| 2026-04-28 22:39 | 22.49663 | 39.86708 | 16379 ft | 450 kts | 41° |
| 2026-04-28 22:40 | 22.52003 | 39.88958 | 16597 ft | 450 kts | 40° |
| 2026-04-28 22:40 | 22.54380 | 39.91176 | 16735 ft | 453 kts | 39° |
| 2026-04-28 22:40 | 22.56776 | 39.93400 | 16924 ft | 454 kts | 40° |
| 2026-04-28 22:40 | 22.59167 | 39.95633 | 17092 ft | 455 kts | 40° |
| 2026-04-28 22:41 | 22.61558 | 39.97884 | 17285 ft | 456 kts | 40° |
| 2026-04-28 22:41 | 22.63946 | 40.00151 | 17454 ft | 457 kts | 40° |
| 2026-04-28 22:41 | 22.66338 | 40.02434 | 17632 ft | 459 kts | 40° |
| 2026-04-28 22:41 | 22.68728 | 40.04721 | 17814 ft | 459 kts | 40° |
| 2026-04-28 22:42 | 22.71120 | 40.07014 | 18010 ft | 460 kts | 40° |
| 2026-04-28 22:42 | 22.73524 | 40.09319 | 18151 ft | 462 kts | 40° |
| 2026-04-28 22:42 | 22.75933 | 40.11629 | 18301 ft | 463 kts | 40° |
| 2026-04-28 22:42 | 22.78350 | 40.13948 | 18444 ft | 464 kts | 40° |
| 2026-04-28 22:43 | 22.80771 | 40.16272 | 18567 ft | 466 kts | 40° |
| 2026-04-28 22:43 | 22.83202 | 40.18605 | 18694 ft | 467 kts | 40° |
| 2026-04-28 22:43 | 22.85074 | 40.20402 | 18796 ft | 469 kts | 40° |
| 2026-04-28 22:43 | 22.87515 | 40.22747 | 18900 ft | 470 kts | 40° |
| 2026-04-28 22:44 | 22.89966 | 40.25102 | 19063 ft | 471 kts | 40° |
| 2026-04-28 22:44 | 22.92427 | 40.27469 | 19092 ft | 475 kts | 40° |
| 2026-04-28 22:44 | 22.94903 | 40.29852 | 19199 ft | 477 kts | 40° |
| 2026-04-28 22:44 | 22.97386 | 40.32242 | 19342 ft | 477 kts | 40° |
| 2026-04-28 22:45 | 22.99873 | 40.34636 | 19467 ft | 479 kts | 40° |
| 2026-04-28 22:45 | 23.02366 | 40.37039 | 19563 ft | 480 kts | 40° |
| 2026-04-28 22:45 | 23.04868 | 40.39451 | 19698 ft | 482 kts | 40° |
| 2026-04-28 22:45 | 23.07376 | 40.41870 | 19812 ft | 483 kts | 40° |
| 2026-04-28 22:46 | 23.09886 | 40.44292 | 19942 ft | 484 kts | 40° |
| 2026-04-28 22:46 | 23.12409 | 40.46729 | 20049 ft | 486 kts | 40° |
| 2026-04-28 22:46 | 23.14938 | 40.49173 | 20190 ft | 486 kts | 40° |
| 2026-04-28 22:46 | 23.17469 | 40.51620 | 20323 ft | 487 kts | 40° |
| 2026-04-28 22:47 | 23.20008 | 40.54076 | 20427 ft | 489 kts | 40° |
| 2026-04-28 22:47 | 23.22553 | 40.56537 | 20553 ft | 490 kts | 40° |
| 2026-04-28 22:47 | 23.25096 | 40.59002 | 20748 ft | 490 kts | 40° |
| 2026-04-28 22:47 | 23.27634 | 40.61472 | 20949 ft | 489 kts | 40° |
| 2026-04-28 22:48 | 23.30163 | 40.63942 | 21187 ft | 488 kts | 40° |
| 2026-04-28 22:48 | 23.32679 | 40.66409 | 21487 ft | 485 kts | 40° |
| 2026-04-28 22:48 | 23.35172 | 40.68864 | 21854 ft | 481 kts | 40° |
| 2026-04-28 22:48 | 23.37633 | 40.71302 | 22292 ft | 476 kts | 40° |
| 2026-04-28 22:49 | 23.39494 | 40.73159 | 22692 ft | 471 kts | 40° |